<?xml version="1.0" encoding="UTF-8" standalone="no" ?>
<gpx xmlns="http://www.topografix.com/GPX/1/1" xmlns:xsi="http://www.w3.org/2001/XMLSchema-instance" xsi:schemaLocation="http://www.topografix.com/GPX/1/1 http://www.topografix.com/GPX/1/1/gpx.xsd" version="1.1" creator="VisuGPX - https://www.visugpx.com">
  <metadata>
    <name>Descente sympa valmasque</name>
    <desc><![CDATA[Cool et bien entretenue]]></desc>
  </metadata>
  <trk>
    <name><![CDATA[SP du Golf new]]></name>
    <trkseg>
      <trkpt lat="43.60469" lon="7.03448">
        <ele>185.600006</ele>
        <time>2012-08-06T16:03:59Z</time>
      </trkpt>
      <trkpt lat="43.60469" lon="7.03442">
        <ele>185.800003</ele>
        <time>2012-08-06T16:04:01Z</time>
      </trkpt>
      <trkpt lat="43.60469" lon="7.0344">
        <ele>186.199997</ele>
        <time>2012-08-06T16:04:02Z</time>
      </trkpt>
      <trkpt lat="43.60469" lon="7.03435">
        <ele>186.800003</ele>
        <time>2012-08-06T16:04:04Z</time>
      </trkpt>
      <trkpt lat="43.60469" lon="7.03433">
        <ele>187.199997</ele>
        <time>2012-08-06T16:04:05Z</time>
      </trkpt>
      <trkpt lat="43.6047" lon="7.03426">
        <ele>187.800003</ele>
        <time>2012-08-06T16:04:08Z</time>
      </trkpt>
      <trkpt lat="43.60471" lon="7.03421">
        <ele>188</ele>
        <time>2012-08-06T16:04:10Z</time>
      </trkpt>
      <trkpt lat="43.60472" lon="7.03419">
        <ele>188.199997</ele>
        <time>2012-08-06T16:04:11Z</time>
      </trkpt>
      <trkpt lat="43.60473" lon="7.03413">
        <ele>188.600006</ele>
        <time>2012-08-06T16:04:13Z</time>
      </trkpt>
      <trkpt lat="43.60474" lon="7.03406">
        <ele>189.199997</ele>
        <time>2012-08-06T16:04:15Z</time>
      </trkpt>
      <trkpt lat="43.60475" lon="7.03398">
        <ele>189.600006</ele>
        <time>2012-08-06T16:04:17Z</time>
      </trkpt>
      <trkpt lat="43.60476" lon="7.0339">
        <ele>190</ele>
        <time>2012-08-06T16:04:19Z</time>
      </trkpt>
      <trkpt lat="43.60476" lon="7.03383">
        <ele>190.399994</ele>
        <time>2012-08-06T16:04:21Z</time>
      </trkpt>
      <trkpt lat="43.60477" lon="7.03379">
        <ele>190.600006</ele>
        <time>2012-08-06T16:04:22Z</time>
      </trkpt>
      <trkpt lat="43.60484" lon="7.03356">
        <ele>191.199997</ele>
        <time>2012-08-06T16:04:29Z</time>
      </trkpt>
      <trkpt lat="43.60488" lon="7.03344">
        <ele>191.399994</ele>
        <time>2012-08-06T16:04:34Z</time>
      </trkpt>
      <trkpt lat="43.60489" lon="7.03337">
        <ele>191.800003</ele>
        <time>2012-08-06T16:04:40Z</time>
      </trkpt>
      <trkpt lat="43.60489" lon="7.03336">
        <ele>192</ele>
        <time>2012-08-06T16:04:42Z</time>
      </trkpt>
      <trkpt lat="43.60489" lon="7.03335">
        <ele>192.600006</ele>
        <time>2012-08-06T16:04:46Z</time>
      </trkpt>
      <trkpt lat="43.60489" lon="7.03336">
        <ele>192.800003</ele>
        <time>2012-08-06T16:04:48Z</time>
      </trkpt>
      <trkpt lat="43.60489" lon="7.03338">
        <ele>193</ele>
        <time>2012-08-06T16:04:50Z</time>
      </trkpt>
      <trkpt lat="43.6049" lon="7.0334">
        <ele>193.199997</ele>
        <time>2012-08-06T16:04:52Z</time>
      </trkpt>
      <trkpt lat="43.60491" lon="7.0334">
        <ele>193.199997</ele>
        <time>2012-08-06T16:04:55Z</time>
      </trkpt>
      <trkpt lat="43.60498" lon="7.0333">
        <ele>193.199997</ele>
        <time>2012-08-06T16:05:01Z</time>
      </trkpt>
      <trkpt lat="43.60499" lon="7.03329">
        <ele>193</ele>
        <time>2012-08-06T16:05:02Z</time>
      </trkpt>
      <trkpt lat="43.60501" lon="7.03328">
        <ele>193</ele>
        <time>2012-08-06T16:05:03Z</time>
      </trkpt>
      <trkpt lat="43.60507" lon="7.0333">
        <ele>192.399994</ele>
        <time>2012-08-06T16:05:05Z</time>
      </trkpt>
      <trkpt lat="43.60511" lon="7.03335">
        <ele>191.800003</ele>
        <time>2012-08-06T16:05:07Z</time>
      </trkpt>
      <trkpt lat="43.60514" lon="7.03342">
        <ele>191.399994</ele>
        <time>2012-08-06T16:05:09Z</time>
      </trkpt>
      <trkpt lat="43.60513" lon="7.03347">
        <ele>191</ele>
        <time>2012-08-06T16:05:11Z</time>
      </trkpt>
      <trkpt lat="43.60513" lon="7.03348">
        <ele>190.600006</ele>
        <time>2012-08-06T16:05:12Z</time>
      </trkpt>
      <trkpt lat="43.60511" lon="7.0335">
        <ele>189.800003</ele>
        <time>2012-08-06T16:05:14Z</time>
      </trkpt>
      <trkpt lat="43.60511" lon="7.03351">
        <ele>189.199997</ele>
        <time>2012-08-06T16:05:15Z</time>
      </trkpt>
      <trkpt lat="43.6051" lon="7.03354">
        <ele>188.399994</ele>
        <time>2012-08-06T16:05:17Z</time>
      </trkpt>
      <trkpt lat="43.60509" lon="7.03358">
        <ele>187.399994</ele>
        <time>2012-08-06T16:05:19Z</time>
      </trkpt>
      <trkpt lat="43.60509" lon="7.03362">
        <ele>186.600006</ele>
        <time>2012-08-06T16:05:21Z</time>
      </trkpt>
      <trkpt lat="43.6051" lon="7.03364">
        <ele>185.800003</ele>
        <time>2012-08-06T16:05:22Z</time>
      </trkpt>
      <trkpt lat="43.60511" lon="7.03368">
        <ele>184.800003</ele>
        <time>2012-08-06T16:05:24Z</time>
      </trkpt>
      <trkpt lat="43.60512" lon="7.0337">
        <ele>184.399994</ele>
        <time>2012-08-06T16:05:25Z</time>
      </trkpt>
      <trkpt lat="43.60512" lon="7.03377">
        <ele>182.600006</ele>
        <time>2012-08-06T16:05:28Z</time>
      </trkpt>
      <trkpt lat="43.60513" lon="7.03379">
        <ele>181.800003</ele>
        <time>2012-08-06T16:05:29Z</time>
      </trkpt>
      <trkpt lat="43.60515" lon="7.03381">
        <ele>181.199997</ele>
        <time>2012-08-06T16:05:30Z</time>
      </trkpt>
      <trkpt lat="43.60518" lon="7.03383">
        <ele>180.399994</ele>
        <time>2012-08-06T16:05:31Z</time>
      </trkpt>
      <trkpt lat="43.60524" lon="7.03388">
        <ele>179</ele>
        <time>2012-08-06T16:05:33Z</time>
      </trkpt>
      <trkpt lat="43.60527" lon="7.0339">
        <ele>178</ele>
        <time>2012-08-06T16:05:34Z</time>
      </trkpt>
      <trkpt lat="43.60534" lon="7.03395">
        <ele>176.600006</ele>
        <time>2012-08-06T16:05:36Z</time>
      </trkpt>
      <trkpt lat="43.60538" lon="7.03399">
        <ele>175.600006</ele>
        <time>2012-08-06T16:05:37Z</time>
      </trkpt>
      <trkpt lat="43.60546" lon="7.03414">
        <ele>174</ele>
        <time>2012-08-06T16:05:40Z</time>
      </trkpt>
      <trkpt lat="43.60548" lon="7.03421">
        <ele>173</ele>
        <time>2012-08-06T16:05:41Z</time>
      </trkpt>
      <trkpt lat="43.6055" lon="7.03428">
        <ele>172.199997</ele>
        <time>2012-08-06T16:05:42Z</time>
      </trkpt>
      <trkpt lat="43.60553" lon="7.03435">
        <ele>171</ele>
        <time>2012-08-06T16:05:43Z</time>
      </trkpt>
      <trkpt lat="43.60556" lon="7.03449">
        <ele>169</ele>
        <time>2012-08-06T16:05:45Z</time>
      </trkpt>
      <trkpt lat="43.60558" lon="7.03459">
        <ele>167.399994</ele>
        <time>2012-08-06T16:05:47Z</time>
      </trkpt>
      <trkpt lat="43.60559" lon="7.03464">
        <ele>166.199997</ele>
        <time>2012-08-06T16:05:49Z</time>
      </trkpt>
      <trkpt lat="43.60561" lon="7.03463">
        <ele>165.600006</ele>
        <time>2012-08-06T16:05:50Z</time>
      </trkpt>
      <trkpt lat="43.60562" lon="7.03462">
        <ele>165.199997</ele>
        <time>2012-08-06T16:05:51Z</time>
      </trkpt>
      <trkpt lat="43.60564" lon="7.0346">
        <ele>164.399994</ele>
        <time>2012-08-06T16:05:52Z</time>
      </trkpt>
      <trkpt lat="43.60566" lon="7.03457">
        <ele>163.800003</ele>
        <time>2012-08-06T16:05:53Z</time>
      </trkpt>
      <trkpt lat="43.60571" lon="7.03453">
        <ele>162.399994</ele>
        <time>2012-08-06T16:05:55Z</time>
      </trkpt>
      <trkpt lat="43.60576" lon="7.03451">
        <ele>161.199997</ele>
        <time>2012-08-06T16:05:57Z</time>
      </trkpt>
      <trkpt lat="43.60577" lon="7.03452">
        <ele>160.800003</ele>
        <time>2012-08-06T16:05:58Z</time>
      </trkpt>
      <trkpt lat="43.6058" lon="7.03461">
        <ele>158.800003</ele>
        <time>2012-08-06T16:06:01Z</time>
      </trkpt>
      <trkpt lat="43.60582" lon="7.03468">
        <ele>157.800003</ele>
        <time>2012-08-06T16:06:03Z</time>
      </trkpt>
      <trkpt lat="43.60584" lon="7.03474">
        <ele>157.199997</ele>
        <time>2012-08-06T16:06:05Z</time>
      </trkpt>
      <trkpt lat="43.60585" lon="7.03476">
        <ele>156.600006</ele>
        <time>2012-08-06T16:06:06Z</time>
      </trkpt>
      <trkpt lat="43.60587" lon="7.03478">
        <ele>155.600006</ele>
        <time>2012-08-06T16:06:08Z</time>
      </trkpt>
      <trkpt lat="43.60588" lon="7.03477">
        <ele>155.199997</ele>
        <time>2012-08-06T16:06:09Z</time>
      </trkpt>
      <trkpt lat="43.6059" lon="7.03476">
        <ele>154.800003</ele>
        <time>2012-08-06T16:06:10Z</time>
      </trkpt>
      <trkpt lat="43.60596" lon="7.03471">
        <ele>153.600006</ele>
        <time>2012-08-06T16:06:12Z</time>
      </trkpt>
      <trkpt lat="43.606" lon="7.03469">
        <ele>153.199997</ele>
        <time>2012-08-06T16:06:13Z</time>
      </trkpt>
      <trkpt lat="43.60612" lon="7.03461">
        <ele>152.199997</ele>
        <time>2012-08-06T16:06:16Z</time>
      </trkpt>
      <trkpt lat="43.60617" lon="7.03456">
        <ele>151.600006</ele>
        <time>2012-08-06T16:06:18Z</time>
      </trkpt>
      <trkpt lat="43.60621" lon="7.03453">
        <ele>151.199997</ele>
        <time>2012-08-06T16:06:20Z</time>
      </trkpt>
      <trkpt lat="43.60624" lon="7.03451">
        <ele>150.399994</ele>
        <time>2012-08-06T16:06:22Z</time>
      </trkpt>
      <trkpt lat="43.60625" lon="7.03451">
        <ele>150.199997</ele>
        <time>2012-08-06T16:06:23Z</time>
      </trkpt>
      <trkpt lat="43.60626" lon="7.03451">
        <ele>149.800003</ele>
        <time>2012-08-06T16:06:24Z</time>
      </trkpt>
      <trkpt lat="43.60626" lon="7.0345">
        <ele>149.600006</ele>
        <time>2012-08-06T16:06:25Z</time>
      </trkpt>
      <trkpt lat="43.60628" lon="7.03449">
        <ele>149.199997</ele>
        <time>2012-08-06T16:06:27Z</time>
      </trkpt>
      <trkpt lat="43.60631" lon="7.03449">
        <ele>148.800003</ele>
        <time>2012-08-06T16:06:29Z</time>
      </trkpt>
      <trkpt lat="43.60633" lon="7.03449">
        <ele>148.600006</ele>
        <time>2012-08-06T16:06:30Z</time>
      </trkpt>
      <trkpt lat="43.60642" lon="7.03449">
        <ele>148</ele>
        <time>2012-08-06T16:06:34Z</time>
      </trkpt>
      <trkpt lat="43.60646" lon="7.0345">
        <ele>147.399994</ele>
        <time>2012-08-06T16:06:36Z</time>
      </trkpt>
      <trkpt lat="43.60648" lon="7.03451">
        <ele>147.199997</ele>
        <time>2012-08-06T16:06:37Z</time>
      </trkpt>
      <trkpt lat="43.60647" lon="7.03452">
        <ele>146.600006</ele>
        <time>2012-08-06T16:06:40Z</time>
      </trkpt>
      <trkpt lat="43.60646" lon="7.03452">
        <ele>146.399994</ele>
        <time>2012-08-06T16:06:42Z</time>
      </trkpt>
      <trkpt lat="43.60646" lon="7.03451">
        <ele>146.199997</ele>
        <time>2012-08-06T16:06:43Z</time>
      </trkpt>
      <trkpt lat="43.60646" lon="7.03451">
        <ele>145.800003</ele>
        <time>2012-08-06T16:06:45Z</time>
      </trkpt>
      <trkpt lat="43.60648" lon="7.03451">
        <ele>145.399994</ele>
        <time>2012-08-06T16:06:46Z</time>
      </trkpt>
      <trkpt lat="43.60651" lon="7.03451">
        <ele>145.199997</ele>
        <time>2012-08-06T16:06:47Z</time>
      </trkpt>
      <trkpt lat="43.60657" lon="7.03452">
        <ele>144.800003</ele>
        <time>2012-08-06T16:06:49Z</time>
      </trkpt>
      <trkpt lat="43.60664" lon="7.03454">
        <ele>144.399994</ele>
        <time>2012-08-06T16:06:51Z</time>
      </trkpt>
      <trkpt lat="43.6067" lon="7.03457">
        <ele>144.199997</ele>
        <time>2012-08-06T16:06:53Z</time>
      </trkpt>
      <trkpt lat="43.60678" lon="7.03463">
        <ele>143.600006</ele>
        <time>2012-08-06T16:06:56Z</time>
      </trkpt>
      <trkpt lat="43.60682" lon="7.03468">
        <ele>143</ele>
        <time>2012-08-06T16:06:58Z</time>
      </trkpt>
      <trkpt lat="43.60684" lon="7.03471">
        <ele>142.600006</ele>
        <time>2012-08-06T16:06:59Z</time>
      </trkpt>
      <trkpt lat="43.60687" lon="7.03476">
        <ele>141.800003</ele>
        <time>2012-08-06T16:07:01Z</time>
      </trkpt>
      <trkpt lat="43.60689" lon="7.03478">
        <ele>141.199997</ele>
        <time>2012-08-06T16:07:02Z</time>
      </trkpt>
      <trkpt lat="43.6069" lon="7.03481">
        <ele>140.800003</ele>
        <time>2012-08-06T16:07:03Z</time>
      </trkpt>
      <trkpt lat="43.60692" lon="7.03483">
        <ele>139.600006</ele>
        <time>2012-08-06T16:07:06Z</time>
      </trkpt>
      <trkpt lat="43.60691" lon="7.03481">
        <ele>139</ele>
        <time>2012-08-06T16:07:08Z</time>
      </trkpt>
      <trkpt lat="43.6069" lon="7.03479">
        <ele>138.600006</ele>
        <time>2012-08-06T16:07:09Z</time>
      </trkpt>
      <trkpt lat="43.60692" lon="7.03475">
        <ele>137.800003</ele>
        <time>2012-08-06T16:07:11Z</time>
      </trkpt>
      <trkpt lat="43.60698" lon="7.03471">
        <ele>137</ele>
        <time>2012-08-06T16:07:13Z</time>
      </trkpt>
      <trkpt lat="43.60712" lon="7.03467">
        <ele>136.800003</ele>
        <time>2012-08-06T16:07:14Z</time>
      </trkpt>
      <trkpt lat="43.60718" lon="7.03463">
        <ele>136</ele>
        <time>2012-08-06T16:07:17Z</time>
      </trkpt>
      <trkpt lat="43.60721" lon="7.03456">
        <ele>135.399994</ele>
        <time>2012-08-06T16:07:22Z</time>
      </trkpt>
      <trkpt lat="43.60723" lon="7.03451">
        <ele>135.199997</ele>
        <time>2012-08-06T16:07:25Z</time>
      </trkpt>
      <trkpt lat="43.60724" lon="7.03451">
        <ele>135.399994</ele>
        <time>2012-08-06T16:07:27Z</time>
      </trkpt>
      <trkpt lat="43.60724" lon="7.03452">
        <ele>135.600006</ele>
        <time>2012-08-06T16:07:28Z</time>
      </trkpt>
      <trkpt lat="43.60724" lon="7.03453">
        <ele>135.600006</ele>
        <time>2012-08-06T16:07:29Z</time>
      </trkpt>
      <trkpt lat="43.60729" lon="7.03456">
        <ele>135.399994</ele>
        <time>2012-08-06T16:07:31Z</time>
      </trkpt>
      <trkpt lat="43.60737" lon="7.03458">
        <ele>135.199997</ele>
        <time>2012-08-06T16:07:33Z</time>
      </trkpt>
      <trkpt lat="43.6074" lon="7.03458">
        <ele>135</ele>
        <time>2012-08-06T16:07:34Z</time>
      </trkpt>
      <trkpt lat="43.60745" lon="7.03457">
        <ele>134.600006</ele>
        <time>2012-08-06T16:07:36Z</time>
      </trkpt>
      <trkpt lat="43.60747" lon="7.03456">
        <ele>134.199997</ele>
        <time>2012-08-06T16:07:37Z</time>
      </trkpt>
      <trkpt lat="43.60747" lon="7.0345">
        <ele>133.600006</ele>
        <time>2012-08-06T16:07:40Z</time>
      </trkpt>
      <trkpt lat="43.60747" lon="7.03447">
        <ele>133.199997</ele>
        <time>2012-08-06T16:07:42Z</time>
      </trkpt>
      <trkpt lat="43.60748" lon="7.03447">
        <ele>133</ele>
        <time>2012-08-06T16:07:43Z</time>
      </trkpt>
      <trkpt lat="43.60749" lon="7.03447">
        <ele>132.800003</ele>
        <time>2012-08-06T16:07:44Z</time>
      </trkpt>
      <trkpt lat="43.60752" lon="7.03448">
        <ele>132.600006</ele>
        <time>2012-08-06T16:07:46Z</time>
      </trkpt>
      <trkpt lat="43.60757" lon="7.03448">
        <ele>131.800003</ele>
        <time>2012-08-06T16:07:58Z</time>
      </trkpt>
      <trkpt lat="43.60756" lon="7.03449">
        <ele>131.800003</ele>
        <time>2012-08-06T16:08:00Z</time>
      </trkpt>
      <trkpt lat="43.60755" lon="7.03449">
        <ele>131.800003</ele>
        <time>2012-08-06T16:08:02Z</time>
      </trkpt>
      <trkpt lat="43.60755" lon="7.03449">
        <ele>131.800003</ele>
        <time>2012-08-06T16:08:03Z</time>
      </trkpt>
      <trkpt lat="43.60761" lon="7.03443">
        <ele>131.600006</ele>
        <time>2012-08-06T16:08:15Z</time>
      </trkpt>
      <trkpt lat="43.60763" lon="7.0344">
        <ele>131.600006</ele>
        <time>2012-08-06T16:08:19Z</time>
      </trkpt>
      <trkpt lat="43.60767" lon="7.03437">
        <ele>131.600006</ele>
        <time>2012-08-06T16:08:25Z</time>
      </trkpt>
      <trkpt lat="43.6077" lon="7.03434">
        <ele>131.600006</ele>
        <time>2012-08-06T16:08:30Z</time>
      </trkpt>
      <trkpt lat="43.60772" lon="7.03434">
        <ele>131.600006</ele>
        <time>2012-08-06T16:08:32Z</time>
      </trkpt>
      <trkpt lat="43.60773" lon="7.03433">
        <ele>131.600006</ele>
        <time>2012-08-06T16:08:34Z</time>
      </trkpt>
      <trkpt lat="43.60775" lon="7.03432">
        <ele>131.600006</ele>
        <time>2012-08-06T16:08:42Z</time>
      </trkpt>
      <trkpt lat="43.60772" lon="7.03433">
        <ele>131.600006</ele>
        <time>2012-08-06T16:08:46Z</time>
      </trkpt>
      <trkpt lat="43.60773" lon="7.03436">
        <ele>131.600006</ele>
        <time>2012-08-06T16:08:50Z</time>
      </trkpt>
      <trkpt lat="43.60774" lon="7.03444">
        <ele>130.600006</ele>
        <time>2012-08-06T16:08:58Z</time>
      </trkpt>
      <trkpt lat="43.60774" lon="7.03444">
        <ele>130.600006</ele>
        <time>2012-08-06T16:08:59Z</time>
      </trkpt>
      <trkpt lat="43.60775" lon="7.03446">
        <ele>130.399994</ele>
        <time>2012-08-06T16:09:01Z</time>
      </trkpt>
      <trkpt lat="43.60775" lon="7.03446">
        <ele>130.199997</ele>
        <time>2012-08-06T16:09:02Z</time>
      </trkpt>
      <trkpt lat="43.60773" lon="7.03445">
        <ele>127.800003</ele>
        <time>2012-08-06T16:09:18Z</time>
      </trkpt>
      <trkpt lat="43.60773" lon="7.03443">
        <ele>127.800003</ele>
        <time>2012-08-06T16:09:19Z</time>
      </trkpt>
      <trkpt lat="43.60772" lon="7.03442">
        <ele>127.599998</ele>
        <time>2012-08-06T16:09:20Z</time>
      </trkpt>
      <trkpt lat="43.60772" lon="7.0344">
        <ele>127.599998</ele>
        <time>2012-08-06T16:09:21Z</time>
      </trkpt>
      <trkpt lat="43.60772" lon="7.03439">
        <ele>127.599998</ele>
        <time>2012-08-06T16:09:22Z</time>
      </trkpt>
      <trkpt lat="43.60772" lon="7.03436">
        <ele>127.400002</ele>
        <time>2012-08-06T16:09:26Z</time>
      </trkpt>
      <trkpt lat="43.60773" lon="7.03436">
        <ele>127.400002</ele>
        <time>2012-08-06T16:09:27Z</time>
      </trkpt>
      <trkpt lat="43.60776" lon="7.03437">
        <ele>127.400002</ele>
        <time>2012-08-06T16:09:29Z</time>
      </trkpt>
      <trkpt lat="43.6078" lon="7.03439">
        <ele>127.400002</ele>
        <time>2012-08-06T16:09:31Z</time>
      </trkpt>
      <trkpt lat="43.60796" lon="7.03443">
        <ele>127.199997</ele>
        <time>2012-08-06T16:09:42Z</time>
      </trkpt>
      <trkpt lat="43.60798" lon="7.03443">
        <ele>127.199997</ele>
        <time>2012-08-06T16:09:45Z</time>
      </trkpt>
      <trkpt lat="43.60808" lon="7.03444">
        <ele>127.199997</ele>
        <time>2012-08-06T16:09:54Z</time>
      </trkpt>
      <trkpt lat="43.60808" lon="7.03444">
        <ele>127.199997</ele>
        <time>2012-08-06T16:10:06Z</time>
      </trkpt>
      <trkpt lat="43.60808" lon="7.03448">
        <ele>127.199997</ele>
        <time>2012-08-06T16:10:09Z</time>
      </trkpt>
      <trkpt lat="43.6081" lon="7.0345">
        <ele>127</ele>
        <time>2012-08-06T16:10:11Z</time>
      </trkpt>
      <trkpt lat="43.60812" lon="7.03449">
        <ele>126.599998</ele>
        <time>2012-08-06T16:10:13Z</time>
      </trkpt>
      <trkpt lat="43.60814" lon="7.03447">
        <ele>126.400002</ele>
        <time>2012-08-06T16:10:15Z</time>
      </trkpt>
      <trkpt lat="43.60815" lon="7.03445">
        <ele>126.199997</ele>
        <time>2012-08-06T16:10:16Z</time>
      </trkpt>
      <trkpt lat="43.60817" lon="7.03442">
        <ele>126</ele>
        <time>2012-08-06T16:10:18Z</time>
      </trkpt>
      <trkpt lat="43.60819" lon="7.0344">
        <ele>125.800003</ele>
        <time>2012-08-06T16:10:19Z</time>
      </trkpt>
      <trkpt lat="43.60822" lon="7.03438">
        <ele>125.800003</ele>
        <time>2012-08-06T16:10:20Z</time>
      </trkpt>
      <trkpt lat="43.6084" lon="7.03427">
        <ele>125.400002</ele>
        <time>2012-08-06T16:10:27Z</time>
      </trkpt>
      <trkpt lat="43.60851" lon="7.03431">
        <ele>125.199997</ele>
        <time>2012-08-06T16:10:32Z</time>
      </trkpt>
      <trkpt lat="43.60859" lon="7.03438">
        <ele>125.199997</ele>
        <time>2012-08-06T16:10:37Z</time>
      </trkpt>
      <trkpt lat="43.6086" lon="7.03438">
        <ele>125.199997</ele>
        <time>2012-08-06T16:10:38Z</time>
      </trkpt>
      <trkpt lat="43.60866" lon="7.03437">
        <ele>125.400002</ele>
        <time>2012-08-06T16:10:44Z</time>
      </trkpt>
      <trkpt lat="43.60871" lon="7.03437">
        <ele>125.599998</ele>
        <time>2012-08-06T16:10:46Z</time>
      </trkpt>
      <trkpt lat="43.60873" lon="7.03436">
        <ele>125.800003</ele>
        <time>2012-08-06T16:10:47Z</time>
      </trkpt>
      <trkpt lat="43.60875" lon="7.03436">
        <ele>126</ele>
        <time>2012-08-06T16:10:48Z</time>
      </trkpt>
      <trkpt lat="43.60879" lon="7.03435">
        <ele>126.199997</ele>
        <time>2012-08-06T16:10:50Z</time>
      </trkpt>
      <trkpt lat="43.60883" lon="7.03435">
        <ele>126.599998</ele>
        <time>2012-08-06T16:10:52Z</time>
      </trkpt>
      <trkpt lat="43.60888" lon="7.03437">
        <ele>127.199997</ele>
        <time>2012-08-06T16:10:54Z</time>
      </trkpt>
      <trkpt lat="43.60892" lon="7.0344">
        <ele>127.599998</ele>
        <time>2012-08-06T16:10:56Z</time>
      </trkpt>
      <trkpt lat="43.60896" lon="7.03442">
        <ele>128</ele>
        <time>2012-08-06T16:10:58Z</time>
      </trkpt>
      <trkpt lat="43.60902" lon="7.03447">
        <ele>128.199997</ele>
        <time>2012-08-06T16:11:00Z</time>
      </trkpt>
      <trkpt lat="43.60913" lon="7.03461">
        <ele>128.600006</ele>
        <time>2012-08-06T16:11:04Z</time>
      </trkpt>
      <trkpt lat="43.60917" lon="7.0347">
        <ele>128.800003</ele>
        <time>2012-08-06T16:11:06Z</time>
      </trkpt>
    </trkseg>
  </trk>
</gpx>